Time;durP1;ratioP1;P1;durP2;ratioP2;P2;SDS_P1;SDS_P2;PMS_P1;PMS_P2;Temp;Humidity;BMP_temperature;BMP_pressure;BME280_temperature;BME280_humidity;BME280_pressure;Samples;Min_cycle;Max_cycle;Signal;HPM_P1;HPM_P2
2021/12/12 00:03:00;;;;;;;18.87;9.10;;;;;;;;;;5046715;28;20052;-83
2021/12/12 00:06:26;;;;;;;22.73;9.87;;;;;;;;;;5057292;28;20040;-83
2021/12/12 00:09:40;;;;;;;16.00;9.03;;;;;;;;;;5041593;28;20056;-80
2021/12/12 00:12:48;;;;;;;14.40;8.27;;;;;;;;;;5039676;28;20497;-79
2021/12/12 00:15:58;;;;;;;20.20;8.03;;;;;;;;;;5028322;28;20064;-78
2021/12/12 00:19:04;;;;;;;22.73;10.93;;;;;;;;;;5059042;28;20059;-76
2021/12/12 00:22:14;;;;;;;16.57;9.57;;;;;;;;;;5068636;28;20062;-79
2021/12/12 00:25:20;;;;;;;30.83;14.87;;;;;;;;;;5017184;28;20045;-79
2021/12/12 00:28:29;;;;;;;15.27;7.40;;;;;;;;;;5017957;28;20044;-79
2021/12/12 00:31:37;;;;;;;19.70;9.93;;;;;;;;;;5046262;28;20051;-79
2021/12/12 00:34:51;;;;;;;29.87;12.80;;;;;;;;;;5071097;28;20048;-81
2021/12/12 00:38:01;;;;;;;21.67;10.23;;;;;;;;;;5069920;28;20045;-82
2021/12/12 00:41:08;;;;;;;22.50;11.23;;;;;;;;;;5048072;28;20048;-82
2021/12/12 00:44:15;;;;;;;24.73;11.80;;;;;;;;;;5049535;28;20040;-82
2021/12/12 00:47:22;;;;;;;22.80;9.27;;;;;;;;;;5071679;28;20443;-79
2021/12/12 00:50:38;;;;;;;27.20;14.33;;;;;;;;;;5045363;28;20045;-84
2021/12/12 00:53:48;;;;;;;22.70;10.03;;;;;;;;;;5038152;28;20098;-79
2021/12/12 00:56:53;;;;;;;37.70;16.57;;;;;;;;;;5038006;28;20056;-80
2021/12/12 00:59:59;;;;;;;18.23;9.17;;;;;;;;;;5039262;28;20045;-82
2021/12/12 01:03:09;;;;;;;19.37;9.73;;;;;;;;;;5041807;28;20485;-77
2021/12/12 01:06:15;;;;;;;20.73;9.27;;;;;;;;;;5073900;28;20408;-76
2021/12/12 01:09:25;;;;;;;19.20;10.67;;;;;;;;;;5062319;28;20063;-80
2021/12/12 01:12:34;;;;;;;17.37;8.43;;;;;;;;;;5043313;28;20051;-78
2021/12/12 01:15:44;;;;;;;26.00;12.13;;;;;;;;;;5043098;28;20060;-80
2021/12/12 01:18:57;;;;;;;31.53;13.70;;;;;;;;;;5047538;28;20044;-82
2021/12/12 01:22:07;;;;;;;32.90;10.47;;;;;;;;;;5050501;28;20052;-80
2021/12/12 01:25:20;;;;;;;26.73;12.70;;;;;;;;;;5073953;28;20041;-78
2021/12/12 01:28:28;;;;;;;21.20;9.33;;;;;;;;;;5061751;28;20051;-76
2021/12/12 01:31:45;;;;;;;31.53;14.50;;;;;;;;;;5062812;28;20119;-80
2021/12/12 01:34:56;;;;;;;34.27;15.93;;;;;;;;;;5061088;28;20040;-77
2021/12/12 01:41:36;;;;;;;24.07;12.73;;;;;;;;;;5062387;28;20425;-77
2021/12/12 01:44:51;;;;;;;19.23;8.90;;;;;;;;;;5073064;28;20484;-78
2021/12/12 01:47:57;;;;;;;18.97;8.77;;;;;;;;;;5073503;28;20067;-82
2021/12/12 01:51:05;;;;;;;22.70;12.13;;;;;;;;;;5073708;28;20036;-81
2021/12/12 01:54:12;;;;;;;31.47;15.30;;;;;;;;;;5061650;28;20040;-78
2021/12/12 01:57:26;;;;;;;27.70;10.83;;;;;;;;;;5073666;28;20064;-78
2021/12/12 02:00:44;;;;;;;37.00;14.75;;;;;;;;;;5084287;28;20531;-79
2021/12/12 02:04:07;;;;;;;24.70;11.83;;;;;;;;;;5061039;28;20067;-82
2021/12/12 02:07:16;;;;;;;32.40;15.30;;;;;;;;;;5061534;28;20408;-82
2021/12/12 02:10:29;;;;;;;33.17;15.47;;;;;;;;;;5061954;28;20059;-83
2021/12/12 02:13:36;;;;;;;;;;;;;;;;;;5072596;28;20048;-81
2021/12/12 02:16:56;;;;;;;35.30;14.50;;;;;;;;;;5072827;28;19927;-82
2021/12/12 02:20:16;;;;;;;34.80;17.60;;;;;;;;;;5061653;28;20051;-81
2021/12/12 02:23:54;;;;;;;38.80;19.37;;;;;;;;;;5073303;28;20044;-82
2021/12/12 02:37:19;;;;;;;33.83;13.43;;;;;;;;;;5051847;28;20057;-79
2021/12/12 02:40:30;;;;;;;33.97;13.90;;;;;;;;;;5029514;28;20508;-79
2021/12/12 02:43:40;;;;;;;37.83;18.03;;;;;;;;;;5039590;28;20045;-80
2021/12/12 02:46:48;;;;;;;25.30;12.33;;;;;;;;;;5040323;28;20068;-79
2021/12/12 02:50:07;;;;;;;28.30;13.23;;;;;;;;;;5052221;28;20045;-80
2021/12/12 02:53:23;;;;;;;27.03;13.87;;;;;;;;;;5029125;28;20048;-79
2021/12/12 02:56:30;;;;;;;39.87;15.60;;;;;;;;;;5026716;28;20500;-80
2021/12/12 02:59:39;;;;;;;30.57;12.43;;;;;;;;;;5053341;28;20044;-81
2021/12/12 03:02:56;;;;;;;26.50;12.37;;;;;;;;;;5029057;28;20044;-79
2021/12/12 03:06:12;;;;;;;35.40;12.10;;;;;;;;;;5029458;28;20049;-81
2021/12/12 03:09:21;;;;;;;19.40;8.93;;;;;;;;;;5052390;28;20067;-81
2021/12/12 03:12:33;;;;;;;38.13;16.80;;;;;;;;;;5040086;28;20104;-80
2021/12/12 03:15:45;;;;;;;18.13;9.33;;;;;;;;;;5034131;28;20068;-79
2021/12/12 03:18:52;;;;;;;34.40;14.57;;;;;;;;;;5049456;28;20064;-79
2021/12/12 03:22:00;;;;;;;33.40;15.03;;;;;;;;;;5034884;28;20045;-82
2021/12/12 03:25:07;;;;;;;44.07;19.13;;;;;;;;;;5020313;28;20045;-83
2021/12/12 03:28:21;;;;;;;32.43;15.13;;;;;;;;;;5032314;28;20061;-78
2021/12/12 03:31:30;;;;;;;30.13;14.10;;;;;;;;;;5001808;28;20049;-80
2021/12/12 03:34:39;;;;;;;22.90;9.07;;;;;;;;;;5032799;28;20053;-80
2021/12/12 03:37:45;;;;;;;23.00;9.10;;;;;;;;;;5021459;28;20064;-83
2021/12/12 03:40:51;;;;;;;32.90;14.73;;;;;;;;;;5008792;28;20052;-80
2021/12/12 03:44:02;;;;;;;34.53;15.60;;;;;;;;;;5020964;28;20414;-83
2021/12/12 03:47:15;;;;;;;43.50;19.97;;;;;;;;;;5008630;28;20048;-82
2021/12/12 03:50:23;;;;;;;40.92;17.88;;;;;;;;;;5020668;28;20057;-79
2021/12/12 03:53:32;;;;;;;27.17;12.70;;;;;;;;;;5014530;28;20063;-78
2021/12/12 03:56:42;;;;;;;34.47;14.23;;;;;;;;;;5015892;28;20490;-80
2021/12/12 03:59:47;;;;;;;29.87;11.03;;;;;;;;;;5009955;28;20049;-82
2021/12/12 04:02:57;;;;;;;35.30;17.20;;;;;;;;;;5009238;28;20053;-79
2021/12/12 04:06:06;;;;;;;36.43;15.70;;;;;;;;;;5009375;28;20052;-80
2021/12/12 04:09:14;;;;;;;30.60;12.27;;;;;;;;;;5009234;28;20045;-83
2021/12/12 04:12:21;;;;;;;27.27;10.60;;;;;;;;;;5009439;28;20076;-79
2021/12/12 04:15:28;;;;;;;34.47;15.70;;;;;;;;;;5030888;28;20072;-80
2021/12/12 04:18:35;;;;;;;52.27;21.13;;;;;;;;;;5010103;28;20045;-77
2021/12/12 04:21:42;;;;;;;46.30;21.10;;;;;;;;;;5009738;28;20048;-80
2021/12/12 04:24:54;;;;;;;46.67;20.40;;;;;;;;;;5007857;28;20037;-81
2021/12/12 04:28:01;;;;;;;31.87;15.07;;;;;;;;;;5010142;28;20041;-80
2021/12/12 04:31:11;;;;;;;47.50;17.80;;;;;;;;;;5032182;28;20448;-80
2021/12/12 04:34:23;;;;;;;34.60;12.43;;;;;;;;;;5008626;28;20056;-80
2021/12/12 04:37:29;;;;;;;38.10;17.23;;;;;;;;;;5043317;28;20057;-78
2021/12/12 04:40:38;;;;;;;36.37;15.23;;;;;;;;;;5014097;28;20504;-78
2021/12/12 04:43:46;;;;;;;31.77;14.63;;;;;;;;;;5012676;28;20053;-79
2021/12/12 04:50:33;;;;;;;46.37;19.10;;;;;;;;;;5044873;28;20055;-81
2021/12/12 04:54:15;;;;;;;36.33;14.17;;;;;;;;;;5040818;28;20413;-78
2021/12/12 04:57:32;;;;;;;23.43;10.17;;;;;;;;;;4980935;28;20059;-80
2021/12/12 05:00:42;;;;;;;33.08;13.55;;;;;;;;;;5001761;28;20054;-78
2021/12/12 05:03:55;;;;;;;40.07;15.67;;;;;;;;;;5023291;28;20049;-77
2021/12/12 05:07:13;;;;;;;27.10;9.77;;;;;;;;;;5012516;28;20041;-79
2021/12/12 05:10:40;;;;;;;35.90;16.67;;;;;;;;;;5024069;28;20057;-79
2021/12/12 05:13:50;;;;;;;13.97;7.07;;;;;;;;;;5022289;28;20053;-80
2021/12/12 05:17:08;;;;;;;22.60;9.87;;;;;;;;;;5021748;28;20498;-76
2021/12/12 05:20:17;;;;;;;16.03;7.90;;;;;;;;;;5012274;28;20052;-82
2021/12/12 05:23:24;;;;;;;31.07;14.70;;;;;;;;;;5000115;28;20045;-83
2021/12/12 05:26:33;;;;;;;33.37;15.17;;;;;;;;;;5001291;28;20425;-79
2021/12/12 05:29:44;;;;;;;30.37;13.13;;;;;;;;;;5010404;28;20052;-79
2021/12/12 05:32:54;;;;;;;19.70;10.23;;;;;;;;;;5012703;28;20045;-80
2021/12/12 05:36:07;;;;;;;46.37;20.17;;;;;;;;;;5026517;28;20498;-79
2021/12/12 05:39:16;;;;;;;20.93;10.17;;;;;;;;;;5052237;28;20040;-80
2021/12/12 05:42:22;;;;;;;27.83;13.43;;;;;;;;;;5049409;28;20047;-79
2021/12/12 05:45:28;;;;;;;28.17;12.17;;;;;;;;;;5049629;28;20040;-78
2021/12/12 05:48:34;;;;;;;25.87;11.43;;;;;;;;;;5039251;28;20051;-78
2021/12/12 05:51:40;;;;;;;33.57;13.33;;;;;;;;;;5036415;28;20056;-78
2021/12/12 05:54:50;;;;;;;30.07;13.50;;;;;;;;;;5021495;28;20052;-80
2021/12/12 05:57:57;;;;;;;30.53;14.60;;;;;;;;;;5041439;28;20065;-79
2021/12/12 06:01:09;;;;;;;23.10;8.50;;;;;;;;;;5040822;28;20045;-77
2021/12/12 06:04:18;;;;;;;36.08;16.02;;;;;;;;;;5052522;28;20048;-80
2021/12/12 06:07:24;;;;;;;18.57;9.83;;;;;;;;;;5042638;28;20040;-79
2021/12/12 06:10:37;;;;;;;36.37;18.17;;;;;;;;;;5060832;28;20048;-79
2021/12/12 06:13:44;;;;;;;33.67;16.77;;;;;;;;;;5061652;28;20474;-81
2021/12/12 06:16:50;;;;;;;34.70;15.33;;;;;;;;;;5050455;28;20063;-77
2021/12/12 06:20:08;;;;;;;34.17;15.70;;;;;;;;;;5062443;28;20045;-78
2021/12/12 06:23:15;;;;;;;24.10;11.10;;;;;;;;;;5041316;28;20551;-78
2021/12/12 06:26:22;;;;;;;40.57;18.07;;;;;;;;;;5025140;28;20044;-78
2021/12/12 06:29:28;;;;;;;37.67;16.93;;;;;;;;;;5031895;28;20040;-79
2021/12/12 06:32:34;;;;;;;25.80;11.80;;;;;;;;;;5016641;28;20076;-82
2021/12/12 06:35:41;;;;;;;23.30;10.23;;;;;;;;;;5042404;28;20044;-79
2021/12/12 06:38:51;;;;;;;46.30;17.50;;;;;;;;;;5052808;28;20052;-80
2021/12/12 06:42:02;;;;;;;52.00;20.10;;;;;;;;;;5079132;28;20440;-82
2021/12/12 06:45:11;;;;;;;25.20;10.50;;;;;;;;;;5092926;28;20044;-78
2021/12/12 06:48:22;;;;;;;51.07;20.37;;;;;;;;;;5039612;28;20048;-76
2021/12/12 06:54:59;;;;;;;46.70;19.47;;;;;;;;;;5076340;28;20044;-76
2021/12/12 06:58:08;;;;;;;53.40;21.93;;;;;;;;;;5049511;28;20056;-76
2021/12/12 07:01:19;;;;;;;36.03;16.17;;;;;;;;;;5061708;28;20400;-80
2021/12/12 07:04:31;;;;;;;52.17;21.00;;;;;;;;;;5060756;28;20517;-86
2021/12/12 07:07:37;;;;;;;33.70;13.73;;;;;;;;;;5061715;28;20040;-78
2021/12/12 07:10:52;;;;;;;32.33;12.20;;;;;;;;;;5066355;28;20040;-83
2021/12/12 07:14:02;;;;;;;56.43;23.27;;;;;;;;;;5060457;28;20040;-81
2021/12/12 07:17:30;;;;;;;55.27;22.93;;;;;;;;;;5052083;28;20048;-87
2021/12/12 07:20:44;;;;;;;45.93;18.53;;;;;;;;;;5069958;28;20048;-78
2021/12/12 07:23:52;;;;;;;37.07;15.10;;;;;;;;;;5067036;28;20043;-79
2021/12/12 07:27:00;;;;;;;39.80;15.27;;;;;;;;;;5093276;28;20527;-79
2021/12/12 07:30:14;;;;;;;47.83;16.77;;;;;;;;;;5093475;28;20048;-76
2021/12/12 07:33:22;;;;;;;33.63;12.60;;;;;;;;;;5080353;28;20048;-80
2021/12/12 07:36:35;;;;;;;34.87;13.90;;;;;;;;;;5091889;28;20051;-78
2021/12/12 07:39:43;;;;;;;36.60;12.70;;;;;;;;;;5070451;28;20056;-77
2021/12/12 07:42:52;;;;;;;19.60;9.47;;;;;;;;;;5080810;28;20539;-78
2021/12/12 07:46:08;;;;;;;62.43;24.47;;;;;;;;;;5061721;28;20040;-78
2021/12/12 07:49:17;;;;;;;46.70;20.90;;;;;;;;;;5052638;28;20048;-76
2021/12/12 07:52:29;;;;;;;32.17;15.33;;;;;;;;;;5082084;28;20051;-78
2021/12/12 07:55:38;;;;;;;51.80;22.53;;;;;;;;;;5090336;28;20420;-77
2021/12/12 07:58:45;;;;;;;35.33;14.20;;;;;;;;;;5074122;28;20251;-80
2021/12/12 08:01:56;;;;;;;59.33;25.13;;;;;;;;;;5091425;28;20054;-78
2021/12/12 08:12:48;;;;;;;37.37;15.20;;;;;;;;;;5119053;28;20032;-77
2021/12/12 08:15:54;;;;;;;54.27;21.47;;;;;;;;;;5083606;28;20040;-78
2021/12/12 08:19:01;;;;;;;35.00;13.97;;;;;;;;;;5085360;28;20056;-76
2021/12/12 08:22:10;;;;;;;28.93;11.60;;;;;;;;;;5054916;28;20060;-79
2021/12/12 08:25:17;;;;;;;52.97;19.07;;;;;;;;;;5052840;28;20047;-78
2021/12/12 08:28:28;;;;;;;60.13;24.23;;;;;;;;;;5064063;28;20424;-76
2021/12/12 08:31:36;;;;;;;50.17;17.73;;;;;;;;;;5076026;28;20036;-78
2021/12/12 08:34:46;;;;;;;65.97;27.70;;;;;;;;;;5051574;28;20044;-76
2021/12/12 08:37:57;;;;;;;61.57;24.07;;;;;;;;;;5042530;28;20416;-75
2021/12/12 08:41:06;;;;;;;67.40;24.40;;;;;;;;;;5042186;28;20044;-78
2021/12/12 08:44:12;;;;;;;46.60;17.87;;;;;;;;;;5063244;28;20500;-78
2021/12/12 08:47:17;;;;;;;53.63;21.63;;;;;;;;;;5041315;28;20539;-77
2021/12/12 08:50:24;;;;;;;51.43;21.03;;;;;;;;;;5041132;28;20048;-77
2021/12/12 08:53:30;;;;;;;57.23;23.63;;;;;;;;;;5051401;28;20059;-79
2021/12/12 08:56:44;;;;;;;55.47;23.20;;;;;;;;;;5041577;28;20056;-77
2021/12/12 08:59:51;;;;;;;58.63;24.13;;;;;;;;;;5052501;28;20051;-77
2021/12/12 09:02:57;;;;;;;58.73;19.60;;;;;;;;;;5040317;28;20048;-77
2021/12/12 09:06:05;;;;;;;64.73;26.43;;;;;;;;;;5041921;28;20421;-77
2021/12/12 09:09:14;;;;;;;65.87;26.40;;;;;;;;;;5042162;28;20051;-76
2021/12/12 09:12:29;;;;;;;57.70;26.13;;;;;;;;;;5042447;28;20047;-76
2021/12/12 09:15:37;;;;;;;60.73;26.37;;;;;;;;;;5051434;28;20040;-79
2021/12/12 09:18:48;;;;;;;42.47;16.87;;;;;;;;;;5041334;28;20048;-78
2021/12/12 09:21:57;;;;;;;64.43;25.60;;;;;;;;;;5039330;28;20055;-77
2021/12/12 09:25:02;;;;;;;51.40;20.17;;;;;;;;;;5051840;28;20507;-78
2021/12/12 09:28:12;;;;;;;54.20;21.60;;;;;;;;;;5052796;28;20044;-78
2021/12/12 09:31:21;;;;;;;26.53;12.13;;;;;;;;;;5059455;28;20047;-79
2021/12/12 09:34:40;;;;;;;50.50;20.90;;;;;;;;;;5060102;28;20440;-75
2021/12/12 09:37:48;;;;;;;67.33;24.37;;;;;;;;;;5059533;28;20060;-78
2021/12/12 09:40:57;;;;;;;29.33;10.30;;;;;;;;;;5061076;28;20412;-76
2021/12/12 09:44:21;;;;;;;62.03;26.63;;;;;;;;;;5075995;28;20043;-76
2021/12/12 09:47:59;;;;;;;49.67;20.40;;;;;;;;;;5071041;28;20170;-75
2021/12/12 09:51:24;;;;;;;65.10;28.23;;;;;;;;;;5079123;28;20043;-76
2021/12/12 09:54:35;;;;;;;72.70;29.47;;;;;;;;;;5068361;28;20067;-77
2021/12/12 09:57:47;;;;;;;67.20;27.33;;;;;;;;;;5078708;28;20056;-75
2021/12/12 10:00:58;;;;;;;60.03;26.83;;;;;;;;;;5065708;28;20035;-76
2021/12/12 10:04:09;;;;;;;57.67;26.17;;;;;;;;;;5066313;28;20054;-76
2021/12/12 10:07:34;;;;;;;68.37;28.90;;;;;;;;;;5073451;28;20047;-77
2021/12/12 10:10:58;;;;;;;63.07;27.10;;;;;;;;;;5060326;28;20048;-75
2021/12/12 10:14:07;;;;;;;75.13;27.90;;;;;;;;;;5058771;28;20380;-76
2021/12/12 10:17:36;;;;;;;74.93;30.03;;;;;;;;;;5083952;28;20048;-76
2021/12/12 10:21:01;;;;;;;63.07;25.07;;;;;;;;;;5061095;28;20036;-77
2021/12/12 10:28:43;;;;;;;70.60;27.33;;;;;;;;;;5094250;28;20515;-76
2021/12/12 10:31:58;;;;;;;30.13;13.13;;;;;;;;;;5059541;28;20043;-76
2021/12/12 10:35:10;;;;;;;67.40;28.43;;;;;;;;;;5062065;28;20041;-78
2021/12/12 10:38:19;;;;;;;40.97;17.17;;;;;;;;;;5061845;28;20053;-76
2021/12/12 10:41:30;;;;;;;55.30;22.87;;;;;;;;;;5059674;28;20067;-77
2021/12/12 10:44:39;;;;;;;71.57;28.30;;;;;;;;;;5081515;28;20457;-76
2021/12/12 10:48:03;;;;;;;32.73;12.77;;;;;;;;;;5059469;28;20035;-76
2021/12/12 10:51:23;;;;;;;112.37;53.70;;;;;;;;;;5059395;28;20048;-76
2021/12/12 10:54:41;;;;;;;68.70;28.50;;;;;;;;;;5059464;28;20044;-77
2021/12/12 10:58:01;;;;;;;67.87;29.50;;;;;;;;;;5055329;28;20055;-78
2021/12/12 11:01:10;;;;;;;47.57;19.67;;;;;;;;;;5057724;28;20047;-77
2021/12/12 11:04:36;;;;;;;71.93;27.40;;;;;;;;;;5039596;28;20140;-81
2021/12/12 11:07:51;;;;;;;46.53;21.07;;;;;;;;;;5072266;28;20047;-87
2021/12/12 11:11:23;;;;;;;47.67;19.00;;;;;;;;;;5071089;28;20047;-85
2021/12/12 11:14:37;;;;;;;75.67;30.77;;;;;;;;;;5064722;28;20044;-85
2021/12/12 11:21:53;;;;;;;72.60;30.60;;;;;;;;;;5060846;28;20044;-85
2021/12/12 11:29:07;;;;;;;64.67;29.03;;;;;;;;;;5064994;28;20044;-83
2021/12/12 11:32:53;;;;;;;57.47;25.73;;;;;;;;;;5054643;28;20037;-82
2021/12/12 11:36:03;;;;;;;72.50;29.27;;;;;;;;;;5048134;28;20046;-88
2021/12/12 11:39:42;;;;;;;61.30;23.53;;;;;;;;;;5068192;28;20071;-87
2021/12/12 11:43:25;;;;;;;61.03;24.83;;;;;;;;;;5068350;28;20539;-90
2021/12/12 11:47:36;;;;;;;72.07;28.10;;;;;;;;;;5073830;28;20040;-91
2021/12/12 11:51:25;;;;;;;81.85;28.45;;;;;;;;;;5062560;28;20041;-88
2021/12/12 11:55:16;;;;;;;67.33;27.80;;;;;;;;;;5082375;28;20046;-87
2021/12/12 11:59:03;;;;;;;68.63;32.20;;;;;;;;;;5062340;28;20136;-92
2021/12/12 12:02:43;;;;;;;70.27;26.40;;;;;;;;;;5077184;28;20044;-88
2021/12/12 12:15:19;;;;;;;66.70;28.47;;;;;;;;;;5008054;28;20046;-91
2021/12/12 12:19:17;;;;;;;52.93;19.20;;;;;;;;;;5000661;28;20060;-92
2021/12/12 12:36:56;;;;;;;61.60;22.07;;;;;;;;;;5088756;28;20054;-85
2021/12/12 12:40:43;;;;;;;59.13;26.00;;;;;;;;;;5019781;28;20084;-85
2021/12/12 12:48:33;;;;;;;50.40;21.87;;;;;;;;;;5020975;28;20460;-88
2021/12/12 12:52:34;;;;;;;63.23;24.93;;;;;;;;;;4989918;28;20049;-86
2021/12/12 12:56:10;;;;;;;52.67;23.80;;;;;;;;;;4998205;28;20069;-89
2021/12/12 13:03:27;;;;;;;53.77;26.80;;;;;;;;;;5057642;28;20048;-87
2021/12/12 13:12:27;;;;;;;55.33;21.20;;;;;;;;;;5107922;28;20054;-84
2021/12/12 13:16:45;;;;;;;69.03;28.63;;;;;;;;;;5129619;28;20047;-89
2021/12/12 13:30:06;;;;;;;50.30;24.97;;;;;;;;;;5080335;28;20043;-90
2021/12/12 13:34:19;;;;;;;55.00;25.83;;;;;;;;;;5078779;28;20040;-88
2021/12/12 13:38:43;;;;;;;49.33;23.73;;;;;;;;;;5075514;28;20045;-89
2021/12/12 13:46:43;;;;;;;44.23;20.30;;;;;;;;;;5037741;28;20052;-89
2021/12/12 13:50:37;;;;;;;39.63;20.20;;;;;;;;;;5096291;28;20062;-85
2021/12/12 13:54:07;;;;;;;57.07;25.97;;;;;;;;;;5078266;28;20043;-89
2021/12/12 13:57:43;;;;;;;63.30;24.90;;;;;;;;;;5081769;28;20052;-89
2021/12/12 14:02:06;;;;;;;45.27;21.47;;;;;;;;;;5093064;28;20028;-83
2021/12/12 14:05:14;;;;;;;44.83;19.70;;;;;;;;;;5070945;28;20157;-87
2021/12/12 14:13:09;;;;;;;43.63;19.37;;;;;;;;;;5075770;28;20051;-82
2021/12/12 14:16:52;;;;;;;50.40;22.83;;;;;;;;;;5093997;28;20040;-84
2021/12/12 14:20:11;;;;;;;49.03;23.13;;;;;;;;;;5057956;28;20058;-81
2021/12/12 14:23:23;;;;;;;59.83;25.90;;;;;;;;;;5086727;28;20052;-79
2021/12/12 14:26:34;;;;;;;70.50;33.37;;;;;;;;;;5077651;28;20048;-81
2021/12/12 14:29:43;;;;;;;54.47;22.13;;;;;;;;;;5055239;28;20401;-83
2021/12/12 14:33:03;;;;;;;48.47;23.07;;;;;;;;;;5055758;28;20063;-88
2021/12/12 14:36:26;;;;;;;61.27;25.90;;;;;;;;;;5042954;28;20052;-83
2021/12/12 14:39:56;;;;;;;54.07;25.60;;;;;;;;;;5063360;28;20429;-78
2021/12/12 14:43:43;;;;;;;48.13;21.20;;;;;;;;;;5063728;28;20405;-82
2021/12/12 14:47:03;;;;;;;54.60;26.47;;;;;;;;;;5049511;28;20048;-85
2021/12/12 14:50:16;;;;;;;40.07;17.00;;;;;;;;;;5065172;28;20047;-78
2021/12/12 14:53:26;;;;;;;44.33;18.53;;;;;;;;;;5083348;28;20121;-79
2021/12/12 14:56:43;;;;;;;51.40;23.97;;;;;;;;;;5081592;28;20040;-80
2021/12/12 15:00:15;;;;;;;32.13;14.90;;;;;;;;;;5084691;28;20051;-80
2021/12/12 15:03:43;;;;;;;35.30;15.40;;;;;;;;;;5061145;28;20047;-82
2021/12/12 15:15:24;;;;;;;45.70;21.33;;;;;;;;;;5062915;28;20436;-79
2021/12/12 15:23:26;;;;;;;54.10;26.60;;;;;;;;;;5055085;28;20051;-80
2021/12/12 15:26:41;;;;;;;37.13;18.77;;;;;;;;;;5055340;28;20049;-78
2021/12/12 15:30:23;;;;;;;54.97;24.53;;;;;;;;;;5054598;28;20043;-79
2021/12/12 15:37:34;;;;;;;45.20;21.17;;;;;;;;;;5039286;28;20417;-76
2021/12/12 15:40:45;;;;;;;48.33;21.03;;;;;;;;;;5029969;28;20067;-76
2021/12/12 15:44:00;;;;;;;29.60;13.40;;;;;;;;;;5040109;28;20052;-76
2021/12/12 15:47:38;;;;;;;47.67;20.90;;;;;;;;;;5044965;28;20148;-85
2021/12/12 15:50:50;;;;;;;35.23;14.27;;;;;;;;;;5030685;28;20073;-78
2021/12/12 15:54:13;;;;;;;51.40;21.40;;;;;;;;;;5082376;28;20040;-83
2021/12/12 15:57:59;;;;;;;42.13;18.37;;;;;;;;;;5106877;28;20066;-81
2021/12/12 16:01:43;;;;;;;35.37;14.60;;;;;;;;;;5113702;28;20047;-78
2021/12/12 16:09:52;;;;;;;41.30;18.80;;;;;;;;;;5118403;28;20050;-84
2021/12/12 16:18:42;;;;;;;34.70;16.10;;;;;;;;;;5108421;28;20059;-78
2021/12/12 16:40:29;;;;;;;41.17;17.67;;;;;;;;;;5078741;28;20061;-79
2021/12/12 16:44:25;;;;;;;48.03;19.33;;;;;;;;;;5070281;28;20048;-79
2021/12/12 18:04:32;;;;;;;29.67;14.20;;;;;;;;;;4952225;23;20397;-80
2021/12/12 18:13:07;;;;;;;20.80;8.23;;;;;;;;;;4952178;29;20051;-81
2021/12/12 18:29:14;;;;;;;36.73;19.47;;;;;;;;;;4941491;29;20048;-81
2021/12/12 18:33:02;;;;;;;20.80;8.33;;;;;;;;;;4964043;29;20043;-80
2021/12/12 18:36:32;;;;;;;35.30;18.43;;;;;;;;;;4913082;29;20058;-80
2021/12/12 19:04:21;;;;;;;28.63;12.33;;;;;;;;;;5159468;23;20047;-87
2021/12/12 19:12:29;;;;;;;28.47;11.57;;;;;;;;;;6104663;23;20022;-82
2021/12/12 19:15:43;;;;;;;35.30;17.23;;;;;;;;;;4911316;29;20076;-79
2021/12/12 19:19:02;;;;;;;22.33;12.67;;;;;;;;;;4898623;29;20051;-80
2021/12/12 19:22:28;;;;;;;32.67;15.67;;;;;;;;;;4924293;29;20051;-79
2021/12/12 19:26:07;;;;;;;44.13;21.73;;;;;;;;;;4923013;29;20568;-79
2021/12/12 19:29:40;;;;;;;32.03;17.03;;;;;;;;;;4907858;29;20063;-80
2021/12/12 19:32:47;;;;;;;30.60;13.53;;;;;;;;;;4919410;29;20059;-80
2021/12/12 19:36:27;;;;;;;31.03;10.27;;;;;;;;;;4909727;29;20414;-78
2021/12/12 19:40:02;;;;;;;42.27;20.10;;;;;;;;;;4898318;29;20056;-80
2021/12/12 19:43:37;;;;;;;39.95;20.77;;;;;;;;;;4896151;29;20060;-79
2021/12/12 19:47:08;;;;;;;22.77;9.93;;;;;;;;;;4899322;29;20055;-80
2021/12/12 19:50:40;;;;;;;32.70;13.37;;;;;;;;;;4888734;29;20061;-80
2021/12/12 19:54:07;;;;;;;40.97;19.90;;;;;;;;;;4885317;29;20056;-80
2021/12/12 19:57:23;;;;;;;32.70;17.13;;;;;;;;;;4902917;29;20058;-80
2021/12/12 20:00:50;;;;;;;47.80;19.37;;;;;;;;;;4895130;29;20052;-79
2021/12/12 20:03:59;;;;;;;30.40;11.80;;;;;;;;;;4897159;29;20055;-79
2021/12/12 20:07:08;;;;;;;60.93;21.53;;;;;;;;;;4890567;29;20055;-79
2021/12/12 20:10:28;;;;;;;55.23;22.33;;;;;;;;;;4905684;29;20059;-80
2021/12/12 20:14:01;;;;;;;52.37;23.97;;;;;;;;;;4891911;29;20380;-80
2021/12/12 20:17:17;;;;;;;43.17;19.47;;;;;;;;;;4861393;29;20049;-78
2021/12/12 20:20:31;;;;;;;17.00;9.57;;;;;;;;;;4884626;29;20056;-78
2021/12/12 20:23:41;;;;;;;44.37;20.03;;;;;;;;;;4883237;29;20064;-79
2021/12/12 20:26:53;;;;;;;27.97;11.23;;;;;;;;;;4852951;29;20045;-79
2021/12/12 20:30:10;;;;;;;39.33;14.03;;;;;;;;;;4880064;29;20052;-80
2021/12/12 20:33:27;;;;;;;34.67;18.10;;;;;;;;;;4869941;29;20052;-79
2021/12/12 20:37:12;;;;;;;38.17;16.97;;;;;;;;;;4895146;29;20044;-80
2021/12/12 20:45:38;;;;;;;32.53;13.27;;;;;;;;;;4866159;29;20057;-82
2021/12/12 20:49:08;;;;;;;23.73;9.40;;;;;;;;;;4879453;29;20044;-78
2021/12/12 20:52:23;;;;;;;33.97;15.50;;;;;;;;;;4869752;29;20052;-78
2021/12/12 20:55:34;;;;;;;51.90;19.03;;;;;;;;;;4888194;29;20558;-79
2021/12/12 20:58:50;;;;;;;35.77;14.20;;;;;;;;;;4869625;29;20044;-79
2021/12/12 21:01:59;;;;;;;43.33;18.70;;;;;;;;;;4865599;29;20065;-78
2021/12/12 21:05:10;;;;;;;31.97;14.87;;;;;;;;;;4868388;29;20075;-77
2021/12/12 21:08:22;;;;;;;45.97;17.23;;;;;;;;;;4886100;29;20063;-77
2021/12/12 21:11:31;;;;;;;49.23;21.87;;;;;;;;;;4882998;29;20053;-78
2021/12/12 21:14:39;;;;;;;27.30;9.97;;;;;;;;;;4838097;29;20061;-78
2021/12/12 21:17:48;;;;;;;46.27;19.17;;;;;;;;;;4866324;29;20053;-78
2021/12/12 21:21:01;;;;;;;36.00;16.23;;;;;;;;;;4880280;29;20061;-77
2021/12/12 21:24:14;;;;;;;39.60;15.27;;;;;;;;;;4875108;29;20044;-78
2021/12/12 21:27:45;;;;;;;54.87;21.83;;;;;;;;;;4855602;29;20045;-80
2021/12/12 21:30:56;;;;;;;24.33;9.57;;;;;;;;;;4865563;29;20521;-78
2021/12/12 21:34:15;;;;;;;34.57;10.77;;;;;;;;;;4869361;29;20059;-77
2021/12/12 21:37:24;;;;;;;32.07;12.10;;;;;;;;;;4882931;29;20056;-77
2021/12/12 21:40:31;;;;;;;46.70;19.53;;;;;;;;;;4879097;29;20060;-77
2021/12/12 21:43:37;;;;;;;44.80;18.40;;;;;;;;;;4857296;29;20060;-77
2021/12/12 21:46:44;;;;;;;25.77;10.37;;;;;;;;;;4875838;29;20044;-77
2021/12/12 21:49:53;;;;;;;38.20;15.57;;;;;;;;;;4858879;29;20053;-77
2021/12/12 21:53:06;;;;;;;38.23;14.93;;;;;;;;;;4851778;29;20442;-77
2021/12/12 21:56:18;;;;;;;29.65;13.18;;;;;;;;;;4847998;29;20057;-77
2021/12/12 21:59:27;;;;;;;61.10;26.70;;;;;;;;;;4873996;29;20049;-77
2021/12/12 22:02:35;;;;;;;46.97;17.07;;;;;;;;;;4858248;29;20058;-77
2021/12/12 22:05:44;;;;;;;60.37;24.77;;;;;;;;;;4853011;29;20049;-77
2021/12/12 22:09:03;;;;;;;63.33;23.33;;;;;;;;;;4864513;29;20060;-78
2021/12/12 22:12:11;;;;;;;53.10;24.10;;;;;;;;;;4866608;29;20056;-77
2021/12/12 22:15:17;;;;;;;36.57;12.57;;;;;;;;;;4875471;29;20430;-78
2021/12/12 22:18:34;;;;;;;60.13;22.17;;;;;;;;;;4871052;29;20052;-79
2021/12/12 22:21:42;;;;;;;35.67;16.23;;;;;;;;;;4859838;29;20060;-79
2021/12/12 22:24:53;;;;;;;57.20;24.70;;;;;;;;;;4864767;29;20427;-78
2021/12/12 22:28:05;;;;;;;26.00;10.77;;;;;;;;;;4860398;29;20393;-77
2021/12/12 22:31:12;;;;;;;65.37;23.73;;;;;;;;;;4870895;29;20070;-78
2021/12/12 22:34:20;;;;;;;56.63;18.70;;;;;;;;;;4891671;29;20051;-78
2021/12/12 22:37:28;;;;;;;56.77;22.67;;;;;;;;;;4859225;29;20526;-79
2021/12/12 22:40:38;;;;;;;43.77;14.60;;;;;;;;;;4853391;29;20084;-77
2021/12/12 22:43:48;;;;;;;54.57;21.30;;;;;;;;;;4858333;29;20415;-78
2021/12/12 22:46:55;;;;;;;62.53;26.73;;;;;;;;;;4877918;29;20045;-77
2021/12/12 22:50:17;;;;;;;57.17;24.80;;;;;;;;;;4878540;29;20060;-77
2021/12/12 22:53:25;;;;;;;59.20;23.67;;;;;;;;;;4863348;29;20519;-76
2021/12/12 22:56:42;;;;;;;81.90;32.83;;;;;;;;;;4867673;29;20044;-77
2021/12/12 22:59:50;;;;;;;71.80;26.63;;;;;;;;;;4861849;29;20530;-77
2021/12/12 23:03:00;;;;;;;38.67;15.23;;;;;;;;;;4875776;29;20526;-76
2021/12/12 23:06:06;;;;;;;50.80;24.13;;;;;;;;;;4863321;29;20068;-77
2021/12/12 23:09:33;;;;;;;82.97;33.77;;;;;;;;;;4880295;29;20056;-78
2021/12/12 23:12:47;;;;;;;34.50;16.27;;;;;;;;;;4849433;29;20056;-76
2021/12/12 23:15:57;;;;;;;61.65;25.50;;;;;;;;;;4865374;29;20064;-77
2021/12/12 23:19:03;;;;;;;80.67;31.53;;;;;;;;;;4866389;29;20055;-78
2021/12/12 23:22:10;;;;;;;75.17;29.13;;;;;;;;;;4867748;29;20541;-77
2021/12/12 23:25:22;;;;;;;70.50;29.60;;;;;;;;;;4865325;29;20503;-77
2021/12/12 23:32:11;;;;;;;39.67;14.87;;;;;;;;;;4878896;29;20044;-77
2021/12/12 23:35:20;;;;;;;41.03;16.27;;;;;;;;;;4850425;29;20052;-76
2021/12/12 23:38:30;;;;;;;62.07;23.23;;;;;;;;;;4874880;29;20045;-76
2021/12/12 23:41:40;;;;;;;55.63;21.87;;;;;;;;;;4863459;29;20057;-77